Time;durP1;ratioP1;P1;durP2;ratioP2;P2;SDS_P1;SDS_P2;PMS_P1;PMS_P2;Temp;Humidity;BMP_temperature;BMP_pressure;BME280_temperature;BME280_humidity;BME280_pressure;Samples;Min_cycle;Max_cycle;Signal;HPM_P1;HPM_P2
2022/10/22 00:00:22;;;;;;;;;;;13.40;83.20;;;;;;5079061;28;19991;-79
2022/10/22 00:02:48;;;;;;;;;;;13.40;83.20;;;;;;5074835;28;20311;-79
2022/10/22 00:05:13;;;;;;;;;;;13.40;83.20;;;;;;5074614;28;19917;-78
2022/10/22 00:07:39;;;;;;;;;;;13.40;83.20;;;;;;5076363;28;20020;-79
2022/10/22 00:10:04;;;;;;;;;;;13.40;83.20;;;;;;5074963;28;20011;-78
2022/10/22 00:12:30;;;;;;;;;;;13.40;83.20;;;;;;5079837;28;20380;-80
2022/10/22 00:14:55;;;;;;;;;;;13.40;83.20;;;;;;5079386;28;20420;-78
2022/10/22 00:17:21;;;;;;;;;;;13.40;83.30;;;;;;5078546;28;25343;-78
2022/10/22 00:19:46;;;;;;;;;;;13.40;83.30;;;;;;5080230;28;19923;-78
2022/10/22 00:22:12;;;;;;;;;;;13.40;83.30;;;;;;5076094;28;20623;-79
2022/10/22 00:24:37;;;;;;;;;;;13.40;83.30;;;;;;5076939;28;19916;-80
2022/10/22 00:27:03;;;;;;;;;;;13.40;83.30;;;;;;5076029;28;20003;-79
2022/10/22 00:29:29;;;;;;;;;;;13.30;83.30;;;;;;5046176;28;19977;-80
2022/10/22 00:31:54;;;;;;;;;;;13.30;83.30;;;;;;5079421;28;20011;-79
2022/10/22 00:34:20;;;;;;;;;;;13.40;83.40;;;;;;5062073;28;20376;-78
2022/10/22 00:36:46;;;;;;;;;;;13.30;83.30;;;;;;5058305;28;19928;-79
2022/10/22 00:39:12;;;;;;;;;;;13.40;83.40;;;;;;5074460;28;20394;-79
2022/10/22 00:41:38;;;;;;;;;;;13.40;83.40;;;;;;5075934;28;19927;-79
2022/10/22 00:44:04;;;;;;;;;;;13.40;83.40;;;;;;5061250;28;20973;-78
2022/10/22 00:46:30;;;;;;;;;;;13.40;83.30;;;;;;5078889;28;19920;-78
2022/10/22 00:48:55;;;;;;;;;;;13.40;83.40;;;;;;5076716;28;20008;-79
2022/10/22 00:51:21;;;;;;;;;;;13.40;83.40;;;;;;5058232;28;19971;-79
2022/10/22 00:53:48;;;;;;;;;;;13.40;83.40;;;;;;5057547;28;19920;-78
2022/10/22 00:56:13;;;;;;;;;;;13.40;83.30;;;;;;5059969;28;20435;-78
2022/10/22 00:58:40;;;;;;;;;;;13.40;83.30;;;;;;5078393;28;19920;-78
2022/10/22 01:01:07;;;;;;;;;;;13.40;83.40;;;;;;5042392;28;19924;-77
2022/10/22 01:03:33;;;;;;;;;;;13.40;83.40;;;;;;5062912;28;20522;-77
2022/10/22 01:05:59;;;;;;;;;;;13.40;83.40;;;;;;5066812;28;19962;-78
2022/10/22 01:08:34;;;;;;;;;;;13.40;83.40;;;;;;5042985;28;19981;-78
2022/10/22 01:11:04;;;;;;;;;;;13.40;83.30;;;;;;5068273;28;19920;-77
2022/10/22 01:13:52;;;;;;;;;;;13.40;83.30;;;;;;5050730;28;19920;-77
2022/10/22 01:16:47;;;;;;;;;;;13.50;83.40;;;;;;5061801;28;19920;-79
2022/10/22 01:19:12;;;;;;;;;;;13.50;83.40;;;;;;5044379;28;19916;-78
2022/10/22 01:21:38;;;;;;;;;;;13.50;83.40;;;;;;5077162;28;20305;-77
2022/10/22 01:24:22;;;;;;;;;;;13.40;84.10;;;;;;5075296;28;19920;-78
2022/10/22 01:26:53;;;;;;;;;;;13.40;83.30;;;;;;5073273;28;20396;-78
2022/10/22 01:29:26;;;;;;;;;;;13.40;83.30;;;;;;5076727;28;19995;-78
2022/10/22 01:31:53;;;;;;;;;;;13.50;83.40;;;;;;5076340;28;20487;-78
2022/10/22 01:34:19;;;;;;;;;;;13.40;83.40;;;;;;5079498;28;19916;-80
2022/10/22 01:36:44;;;;;;;;;;;13.40;83.40;;;;;;5076830;28;21214;-78
2022/10/22 01:39:10;;;;;;;;;;;13.40;83.40;;;;;;5078237;28;20010;-79
2022/10/22 01:41:35;;;;;;;;;;;13.40;83.40;;;;;;5079698;28;19920;-78
2022/10/22 01:44:01;;;;;;;;;;;13.40;83.40;;;;;;5047423;28;19920;-78
2022/10/22 01:46:26;;;;;;;;;;;13.40;83.40;;;;;;5055225;28;19920;-78
2022/10/22 01:48:58;;;;;;;;;;;13.40;83.40;;;;;;5060630;28;20434;-79
2022/10/22 01:51:23;;;;;;;;;;;13.40;83.40;;;;;;5072675;28;19941;-80
2022/10/22 01:54:18;;;;;;;;;;;13.40;83.40;;;;;;5061715;28;19929;-78
2022/10/22 01:56:47;;;;;;;;;;;13.40;83.40;;;;;;5065228;28;19924;-80
2022/10/22 01:59:13;;;;;;;;;;;13.40;83.40;;;;;;5058876;28;20305;-78
2022/10/22 02:01:46;;;;;;;;;;;13.40;83.40;;;;;;5066894;28;20474;-78
2022/10/22 02:04:28;;;;;;;;;;;13.40;83.50;;;;;;5074416;28;20025;-79
2022/10/22 02:06:54;;;;;;;;;;;13.40;83.40;;;;;;5058350;28;19917;-78
2022/10/22 02:09:19;;;;;;;;;;;13.40;83.40;;;;;;5056116;28;19951;-77
2022/10/22 02:11:45;;;;;;;;;;;13.40;83.50;;;;;;5075413;28;19924;-78
2022/10/22 02:14:10;;;;;;;;;;;13.40;83.50;;;;;;5055332;28;19985;-77
2022/10/22 02:16:37;;;;;;;;;;;13.40;83.50;;;;;;5061183;28;19934;-79
2022/10/22 02:19:04;;;;;;;;;;;13.40;83.50;;;;;;5072256;28;19920;-78
2022/10/22 02:21:30;;;;;;;;;;;13.40;83.50;;;;;;5078142;28;19922;-79
2022/10/22 02:23:55;;;;;;;;;;;13.40;83.40;;;;;;5058147;28;19917;-77
2022/10/22 02:26:26;;;;;;;;;;;13.40;83.40;;;;;;5072257;28;20011;-79
2022/10/22 02:29:10;;;;;;;;;;;13.50;83.50;;;;;;5056712;28;19921;-79
2022/10/22 02:31:36;;;;;;;;;;;13.40;83.40;;;;;;5059354;28;19920;-79
2022/10/22 02:34:06;;;;;;;;;;;13.40;83.50;;;;;;5075750;28;19970;-78
2022/10/22 02:36:32;;;;;;;;;;;13.40;83.40;;;;;;5075215;28;19978;-78
2022/10/22 02:38:57;;;;;;;;;;;13.40;83.50;;;;;;5073172;28;20269;-78
2022/10/22 02:41:23;;;;;;;;;;;13.50;83.50;;;;;;5048831;28;19912;-80
2022/10/22 02:43:50;;;;;;;;;;;13.40;83.50;;;;;;5066461;28;20308;-78
2022/10/22 02:46:15;;;;;;;;;;;13.40;83.50;;;;;;5058387;28;19924;-78
2022/10/22 02:48:41;;;;;;;;;;;13.50;83.50;;;;;;5062273;28;19924;-78
2022/10/22 02:51:06;;;;;;;;;;;13.50;83.50;;;;;;5074911;28;19926;-78
2022/10/22 02:53:32;;;;;;;;;;;13.40;83.50;;;;;;5079381;28;19973;-78
2022/10/22 02:55:57;;;;;;;;;;;13.50;83.50;;;;;;5060944;28;20543;-78
2022/10/22 02:58:23;;;;;;;;;;;13.40;83.50;;;;;;5079672;28;19920;-78
2022/10/22 03:00:48;;;;;;;;;;;13.40;83.50;;;;;;5078613;28;19955;-78
2022/10/22 03:03:14;;;;;;;;;;;13.40;83.50;;;;;;5076884;28;19923;-78
2022/10/22 03:05:40;;;;;;;;;;;13.40;83.50;;;;;;5078723;28;19920;-78
2022/10/22 03:08:05;;;;;;;;;;;13.40;83.50;;;;;;5078855;28;20370;-78
2022/10/22 03:10:30;;;;;;;;;;;13.40;83.60;;;;;;5074953;28;19951;-79
2022/10/22 03:12:56;;;;;;;;;;;13.40;83.60;;;;;;5080483;28;19966;-78
2022/10/22 03:15:22;;;;;;;;;;;13.40;83.60;;;;;;5077564;28;19958;-78
2022/10/22 03:17:47;;;;;;;;;;;13.40;83.60;;;;;;5077811;28;19960;-78
2022/10/22 03:20:12;;;;;;;;;;;13.40;83.60;;;;;;5065067;28;20306;-79
2022/10/22 03:22:38;;;;;;;;;;;13.40;83.60;;;;;;5081187;28;20007;-79
2022/10/22 03:25:06;;;;;;;;;;;13.40;83.60;;;;;;5076643;28;20343;-78
2022/10/22 03:27:32;;;;;;;;;;;13.40;83.60;;;;;;5064336;28;19951;-79
2022/10/22 03:29:57;;;;;;;;;;;13.40;83.60;;;;;;5079877;28;19948;-78
2022/10/22 03:32:23;;;;;;;;;;;13.40;83.60;;;;;;5075216;28;20338;-80
2022/10/22 03:34:48;;;;;;;;;;;13.40;83.60;;;;;;5052605;28;19924;-79
2022/10/22 03:37:14;;;;;;;;;;;13.40;83.60;;;;;;5079498;28;19939;-79
2022/10/22 03:39:39;;;;;;;;;;;13.50;83.70;;;;;;5073677;28;19945;-79
2022/10/22 03:42:05;;;;;;;;;;;13.40;83.60;;;;;;5077690;28;19927;-80
2022/10/22 03:44:30;;;;;;;;;;;13.50;83.60;;;;;;5079255;28;20018;-78
2022/10/22 03:46:56;;;;;;;;;;;13.50;83.60;;;;;;5081811;28;19951;-79
2022/10/22 03:49:21;;;;;;;;;;;13.50;83.60;;;;;;5076758;28;19924;-79
2022/10/22 03:51:47;;;;;;;;;;;13.50;83.60;;;;;;5062917;28;22330;-78
2022/10/22 03:54:12;;;;;;;;;;;13.50;83.70;;;;;;5078522;28;20368;-78
2022/10/22 03:56:38;;;;;;;;;;;13.50;83.60;;;;;;5078639;28;19931;-79
2022/10/22 03:59:03;;;;;;;;;;;13.50;83.60;;;;;;5061695;28;19923;-79
2022/10/22 04:01:29;;;;;;;;;;;13.50;83.60;;;;;;5081614;28;19920;-78
2022/10/22 04:03:54;;;;;;;;;;;13.50;83.60;;;;;;5066751;28;19940;-78
2022/10/22 04:06:20;;;;;;;;;;;13.50;83.60;;;;;;5051664;28;19920;-78
2022/10/22 04:08:45;;;;;;;;;;;13.50;83.60;;;;;;5078770;28;20055;-78
2022/10/22 04:11:11;;;;;;;;;;;13.50;83.60;;;;;;5067397;28;20037;-79
2022/10/22 04:13:37;;;;;;;;;;;13.50;83.60;;;;;;5080398;28;20011;-78
2022/10/22 04:16:12;;;;;;;;;;;13.50;83.60;;;;;;5086814;28;19977;-77
2022/10/22 04:18:38;;;;;;;;;;;13.50;83.60;;;;;;5072211;28;19916;-79
2022/10/22 04:21:04;;;;;;;;;;;13.50;83.60;;;;;;5083401;28;19916;-79
2022/10/22 04:23:29;;;;;;;;;;;13.50;83.60;;;;;;5067467;28;19920;-79
2022/10/22 04:25:58;;;;;;;;;;;13.50;83.60;;;;;;5051531;28;19994;-78
2022/10/22 04:28:24;;;;;;;;;;;13.50;83.70;;;;;;5068431;28;20377;-79
2022/10/22 04:30:49;;;;;;;;;;;13.40;83.60;;;;;;5084714;28;19943;-79
2022/10/22 04:33:15;;;;;;;;;;;13.40;83.60;;;;;;5056962;28;19931;-78
2022/10/22 04:35:40;;;;;;;;;;;13.40;83.70;;;;;;5058583;28;19967;-80
2022/10/22 04:38:06;;;;;;;;;;;13.40;83.70;;;;;;5055626;28;19977;-81
2022/10/22 04:40:31;;;;;;;;;;;13.40;83.70;;;;;;5088044;28;20599;-79
2022/10/22 04:42:57;;;;;;;;;;;13.40;83.70;;;;;;5086899;28;19923;-79
2022/10/22 04:45:22;;;;;;;;;;;13.40;83.70;;;;;;5089076;28;19924;-81
2022/10/22 04:47:48;;;;;;;;;;;13.30;83.70;;;;;;5071621;28;19916;-78
2022/10/22 04:50:13;;;;;;;;;;;13.30;83.70;;;;;;5088542;28;19926;-78
2022/10/22 04:52:39;;;;;;;;;;;13.30;83.70;;;;;;5081807;28;19975;-78
2022/10/22 04:55:04;;;;;;;;;;;13.30;83.80;;;;;;5063529;28;19924;-80
2022/10/22 04:57:30;;;;;;;;;;;13.30;83.80;;;;;;5063792;28;19955;-77
2022/10/22 04:59:55;;;;;;;;;;;13.30;83.80;;;;;;5082572;28;19917;-77
2022/10/22 05:02:21;;;;;;;;;;;13.30;83.80;;;;;;5079542;28;19919;-79
2022/10/22 05:04:46;;;;;;;;;;;13.30;83.80;;;;;;5074868;28;19924;-79
2022/10/22 05:07:12;;;;;;;;;;;13.30;83.80;;;;;;5079940;28;19924;-78
2022/10/22 05:09:37;;;;;;;;;;;13.30;83.90;;;;;;5077940;28;19946;-79
2022/10/22 05:12:05;;;;;;;;;;;13.30;83.80;;;;;;5075985;28;19927;-78
2022/10/22 05:14:30;;;;;;;;;;;13.30;83.90;;;;;;5083219;28;19916;-77
2022/10/22 05:16:56;;;;;;;;;;;13.30;83.90;;;;;;5080986;28;20277;-78
2022/10/22 05:19:25;;;;;;;;;;;13.30;83.90;;;;;;5081442;28;19966;-79
2022/10/22 05:21:51;;;;;;;;;;;13.30;83.90;;;;;;5079434;28;20553;-79
2022/10/22 05:24:16;;;;;;;;;;;13.30;83.90;;;;;;5061321;28;19965;-79
2022/10/22 05:26:42;;;;;;;;;;;13.20;83.80;;;;;;5078212;28;19924;-79
2022/10/22 05:29:07;;;;;;;;;;;13.30;83.90;;;;;;5083367;28;19955;-79
2022/10/22 05:31:33;;;;;;;;;;;13.30;83.90;;;;;;5082459;28;19920;-78
2022/10/22 05:33:58;;;;;;;;;;;13.30;83.90;;;;;;5084372;28;19916;-78
2022/10/22 05:36:24;;;;;;;;;;;13.30;84.00;;;;;;5081119;28;19920;-78
2022/10/22 05:38:49;;;;;;;;;;;13.30;84.00;;;;;;5072790;28;19931;-79
2022/10/22 05:41:16;;;;;;;;;;;13.30;84.00;;;;;;5077637;28;19934;-79
2022/10/22 05:43:41;;;;;;;;;;;13.30;84.00;;;;;;5082948;28;19931;-79
2022/10/22 05:46:08;;;;;;;;;;;13.30;84.00;;;;;;5073299;28;19999;-79
2022/10/22 05:48:33;;;;;;;;;;;13.30;84.00;;;;;;5086766;28;19916;-79
2022/10/22 05:51:04;;;;;;;;;;;13.30;84.00;;;;;;5077237;28;19927;-78
2022/10/22 05:53:32;;;;;;;;;;;13.30;84.00;;;;;;5069673;28;19928;-78
2022/10/22 05:55:59;;;;;;;;;;;13.30;84.00;;;;;;5086782;28;19938;-79
2022/10/22 05:58:24;;;;;;;;;;;13.30;84.00;;;;;;5086602;28;19916;-77
2022/10/22 06:00:49;;;;;;;;;;;13.30;83.90;;;;;;5080861;28;19920;-79
2022/10/22 06:03:15;;;;;;;;;;;13.30;84.00;;;;;;5079817;28;19924;-78
2022/10/22 06:05:40;;;;;;;;;;;13.30;84.00;;;;;;5082316;28;19920;-78
2022/10/22 06:08:08;;;;;;;;;;;13.30;84.00;;;;;;5080027;28;19931;-78
2022/10/22 06:10:33;;;;;;;;;;;13.30;84.00;;;;;;5080143;28;19924;-79
2022/10/22 06:13:00;;;;;;;;;;;13.30;84.00;;;;;;5080466;28;20362;-79
2022/10/22 06:15:25;;;;;;;;;;;13.30;84.00;;;;;;5084888;28;19921;-79
2022/10/22 06:17:51;;;;;;;;;;;13.30;84.00;;;;;;5073874;28;19920;-78
2022/10/22 06:20:21;;;;;;;;;;;13.30;84.00;;;;;;5062634;28;19931;-77
2022/10/22 06:22:47;;;;;;;;;;;13.30;84.00;;;;;;5098099;28;19954;-79
2022/10/22 06:25:13;;;;;;;;;;;13.30;84.00;;;;;;5069090;28;19912;-79
2022/10/22 06:27:38;;;;;;;;;;;13.30;84.00;;;;;;5030349;28;19927;-80
2022/10/22 06:30:04;;;;;;;;;;;13.30;84.80;;;;;;5075927;28;19920;-78
2022/10/22 06:32:30;;;;;;;;;;;13.30;84.00;;;;;;5085222;28;19970;-78
2022/10/22 06:34:55;;;;;;;;;;;13.30;84.00;;;;;;5079543;28;19944;-77
2022/10/22 06:37:21;;;;;;;;;;;13.30;84.00;;;;;;5080708;28;19920;-77
2022/10/22 06:39:46;;;;;;;;;;;13.30;84.00;;;;;;5085841;28;19953;-78
2022/10/22 06:42:11;;;;;;;;;;;13.30;84.10;;;;;;5092922;28;19927;-77
2022/10/22 06:44:37;;;;;;;;;;;13.30;84.00;;;;;;5071897;28;19969;-78
2022/10/22 06:47:02;;;;;;;;;;;13.40;84.10;;;;;;5090505;28;20324;-77
2022/10/22 06:49:28;;;;;;;;;;;13.30;84.00;;;;;;5089514;28;21663;-78
2022/10/22 06:51:53;;;;;;;;;;;13.30;84.00;;;;;;5084305;28;19920;-77
2022/10/22 06:54:19;;;;;;;;;;;13.30;84.00;;;;;;5092207;28;19920;-77
2022/10/22 06:56:45;;;;;;;;;;;13.30;84.00;;;;;;5071019;28;20004;-77
2022/10/22 06:59:10;;;;;;;;;;;13.40;84.00;;;;;;5090334;28;19923;-76
2022/10/22 07:01:36;;;;;;;;;;;13.40;84.00;;;;;;5096242;28;20055;-77
2022/10/22 07:04:01;;;;;;;;;;;13.40;84.00;;;;;;5067645;28;20397;-75
2022/10/22 07:06:27;;;;;;;;;;;13.30;84.00;;;;;;5073627;28;19966;-78
2022/10/22 07:08:53;;;;;;;;;;;13.30;84.00;;;;;;5076880;28;19924;-78
2022/10/22 07:11:19;;;;;;;;;;;13.40;84.00;;;;;;5076534;28;19916;-78
2022/10/22 07:13:45;;;;;;;;;;;13.40;84.00;;;;;;5058187;28;19932;-76
2022/10/22 07:16:11;;;;;;;;;;;13.40;84.10;;;;;;5077403;28;20327;-76
2022/10/22 07:18:37;;;;;;;;;;;13.40;84.00;;;;;;5080954;28;19928;-78
2022/10/22 07:21:02;;;;;;;;;;;13.50;84.10;;;;;;5079056;28;19920;-76
2022/10/22 07:23:28;;;;;;;;;;;13.50;84.10;;;;;;5081212;28;19924;-77
2022/10/22 07:25:54;;;;;;;;;;;13.50;84.00;;;;;;5060360;28;19923;-77
2022/10/22 07:28:19;;;;;;;;;;;13.60;84.00;;;;;;5077942;28;20452;-77
2022/10/22 07:30:45;;;;;;;;;;;13.60;83.90;;;;;;5080509;28;19927;-76
2022/10/22 07:33:10;;;;;;;;;;;13.60;83.90;;;;;;5053010;28;19931;-78
2022/10/22 07:35:36;;;;;;;;;;;13.70;83.90;;;;;;5064098;28;19978;-73
2022/10/22 07:38:02;;;;;;;;;;;13.70;83.90;;;;;;5073836;28;19924;-74
2022/10/22 07:40:27;;;;;;;;;;;13.70;83.80;;;;;;5077083;28;20004;-76
2022/10/22 07:42:53;;;;;;;;;;;13.80;83.90;;;;;;5072172;28;19924;-75
2022/10/22 07:45:18;;;;;;;;;;;13.80;83.90;;;;;;5075853;28;20002;-74
2022/10/22 07:47:45;;;;;;;;;;;13.80;83.80;;;;;;5074139;28;20415;-74
2022/10/22 07:50:11;;;;;;;;;;;13.90;83.90;;;;;;5071855;28;19928;-76
2022/10/22 07:52:36;;;;;;;;;;;13.90;83.80;;;;;;5078528;28;20442;-76
2022/10/22 07:55:02;;;;;;;;;;;13.90;83.80;;;;;;5087347;28;19930;-78
2022/10/22 07:57:27;;;;;;;;;;;14.00;83.80;;;;;;5086267;28;20420;-79
2022/10/22 07:59:55;;;;;;;;;;;14.00;83.70;;;;;;5077267;28;19917;-77
2022/10/22 08:02:20;;;;;;;;;;;14.10;83.70;;;;;;5080483;28;20388;-78
2022/10/22 08:04:46;;;;;;;;;;;14.10;83.70;;;;;;5072291;28;19969;-77
2022/10/22 08:07:11;;;;;;;;;;;14.20;83.70;;;;;;5081917;28;19927;-79
2022/10/22 08:09:37;;;;;;;;;;;14.30;83.70;;;;;;5089832;28;19950;-78
2022/10/22 08:12:02;;;;;;;;;;;14.30;83.60;;;;;;5077007;28;19921;-77
2022/10/22 08:14:28;;;;;;;;;;;14.30;83.60;;;;;;5078435;28;19981;-78
2022/10/22 08:16:53;;;;;;;;;;;14.50;83.60;;;;;;5087765;28;19921;-77
2022/10/22 08:19:20;;;;;;;;;;;14.60;83.60;;;;;;5091198;28;19924;-78
2022/10/22 08:21:45;;;;;;;;;;;14.70;83.50;;;;;;5090704;28;19917;-76
2022/10/22 08:24:11;;;;;;;;;;;14.80;83.30;;;;;;5090452;28;20519;-78
2022/10/22 08:26:36;;;;;;;;;;;14.90;83.20;;;;;;5082623;28;20173;-78
2022/10/22 08:29:02;;;;;;;;;;;15.00;83.10;;;;;;5085093;28;19932;-79
2022/10/22 08:31:27;;;;;;;;;;;15.10;83.10;;;;;;5087020;28;19925;-79
2022/10/22 08:33:53;;;;;;;;;;;15.20;83.00;;;;;;5078736;28;19916;-78
2022/10/22 08:36:18;;;;;;;;;;;15.30;83.00;;;;;;5073500;28;20439;-78
2022/10/22 08:38:44;;;;;;;;;;;15.40;82.90;;;;;;5071667;28;19921;-76
2022/10/22 08:41:09;;;;;;;;;;;15.60;82.80;;;;;;5070582;28;19924;-77
2022/10/22 08:43:35;;;;;;;;;;;15.70;82.80;;;;;;5069538;28;20071;-76
2022/10/22 08:46:13;;;;;;;;;;;15.90;82.70;;;;;;5070861;28;19924;-77
2022/10/22 08:48:39;;;;;;;;;;;16.10;82.50;;;;;;5071212;28;19920;-77
2022/10/22 08:51:04;;;;;;;;;;;16.20;82.30;;;;;;5070761;28;19923;-78
2022/10/22 08:53:36;;;;;;;;;;;16.30;82.10;;;;;;5070948;28;19923;-79
2022/10/22 08:56:01;;;;;;;;;;;16.40;81.90;;;;;;5070782;28;19988;-79
2022/10/22 08:58:27;;;;;;;;;;;16.50;81.80;;;;;;5071703;28;19912;-78
2022/10/22 09:01:01;;;;;;;;;;;16.60;81.80;;;;;;5070135;28;20519;-78
2022/10/22 09:03:35;;;;;;;;;;;16.60;81.70;;;;;;5073199;28;20391;-78
2022/10/22 09:06:02;;;;;;;;;;;16.70;81.60;;;;;;5057051;28;19947;-80
2022/10/22 09:08:27;;;;;;;;;;;16.70;81.60;;;;;;5073804;28;19916;-78
2022/10/22 09:11:16;;;;;;;;;;;16.70;81.50;;;;;;5078303;28;19931;-78
2022/10/22 09:13:42;;;;;;;;;;;16.70;81.50;;;;;;5034396;28;19955;-79
2022/10/22 09:16:18;;;;;;;;;;;16.80;81.50;;;;;;5076052;28;19978;-77
2022/10/22 09:18:43;;;;;;;;;;;16.80;81.50;;;;;;5068657;28;19924;-78
2022/10/22 09:21:13;;;;;;;;;;;16.80;81.50;;;;;;5077826;28;19916;-78
2022/10/22 09:23:42;;;;;;;;;;;16.90;81.60;;;;;;5058564;28;19954;-78
2022/10/22 09:26:11;;;;;;;;;;;16.90;81.60;;;;;;5082348;28;19924;-77
2022/10/22 09:28:36;;;;;;;;;;;17.00;81.60;;;;;;5078892;28;19920;-78
2022/10/22 09:31:07;;;;;;;;;;;17.20;81.70;;;;;;5069823;28;20465;-78
2022/10/22 09:33:32;;;;;;;;;;;17.40;81.50;;;;;;5049823;28;20015;-78
2022/10/22 09:36:02;;;;;;;;;;;17.60;81.40;;;;;;5069143;28;20019;-77
2022/10/22 09:38:37;;;;;;;;;;;17.80;81.20;;;;;;5053923;28;19973;-78
2022/10/22 09:41:03;;;;;;;;;;;18.00;81.00;;;;;;5068742;28;20558;-79
2022/10/22 09:43:29;;;;;;;;;;;18.10;80.70;;;;;;5074047;28;19924;-80
2022/10/22 09:45:58;;;;;;;;;;;18.30;80.50;;;;;;5070958;28;19921;-79
2022/10/22 09:48:34;;;;;;;;;;;18.50;80.40;;;;;;5073228;28;19920;-78
2022/10/22 09:50:59;;;;;;;;;;;18.70;80.30;;;;;;5066919;28;19931;-78
2022/10/22 09:53:25;;;;;;;;;;;18.90;80.10;;;;;;5075181;28;19920;-77
2022/10/22 09:55:51;;;;;;;;;;;19.00;79.80;;;;;;5070704;28;19929;-79
2022/10/22 09:58:17;;;;;;;;;;;19.20;79.60;;;;;;5073494;28;19921;-77
2022/10/22 10:00:44;;;;;;;;;;;19.30;79.40;;;;;;5070598;28;19917;-78
2022/10/22 10:03:16;;;;;;;;;;;19.50;79.30;;;;;;5073464;28;19916;-76
2022/10/22 10:05:42;;;;;;;;;;;19.70;79.30;;;;;;5073552;28;19939;-77
2022/10/22 10:08:11;;;;;;;;;;;19.80;79.00;;;;;;5072907;28;19931;-76
2022/10/22 10:11:00;;;;;;;;;;;19.90;78.90;;;;;;5071396;28;19920;-78
2022/10/22 10:13:30;;;;;;;;;;;20.10;78.70;;;;;;5018083;28;19920;-77
2022/10/22 10:16:12;;;;;;;;;;;20.30;78.60;;;;;;5076306;28;20003;-77
2022/10/22 10:18:42;;;;;;;;;;;20.40;78.30;;;;;;5053677;28;19916;-77
2022/10/22 10:21:07;;;;;;;;;;;20.60;78.20;;;;;;5067377;28;19935;-77
2022/10/22 10:23:35;;;;;;;;;;;20.70;78.00;;;;;;5071003;28;19924;-77
2022/10/22 10:26:20;;;;;;;;;;;20.80;77.90;;;;;;5070102;28;20408;-77
2022/10/22 10:28:48;;;;;;;;;;;20.90;77.70;;;;;;5067641;28;20435;-77
2022/10/22 10:31:29;;;;;;;;;;;21.00;77.50;;;;;;5072324;28;19923;-78
2022/10/22 10:34:08;;;;;;;;;;;21.00;77.50;;;;;;5072401;28;20377;-74
2022/10/22 10:36:36;;;;;;;;;;;21.10;77.60;;;;;;5056292;28;19931;-78
2022/10/22 10:39:03;;;;;;;;;;;21.20;78.40;;;;;;5069826;28;19925;-78
2022/10/22 10:42:01;;;;;;;;;;;21.30;77.50;;;;;;5053555;28;20035;-78
2022/10/22 10:44:32;;;;;;;;;;;21.40;77.30;;;;;;5039338;28;19973;-78
2022/10/22 10:46:57;;;;;;;;;;;21.60;77.20;;;;;;5073781;28;19916;-79
2022/10/22 10:49:25;;;;;;;;;;;21.70;77.10;;;;;;5073126;28;19916;-78
2022/10/22 10:52:03;;;;;;;;;;;21.80;76.90;;;;;;5076178;28;19920;-79
2022/10/22 10:54:29;;;;;;;;;;;22.00;76.80;;;;;;5076781;28;19924;-79
2022/10/22 10:56:55;;;;;;;;;;;22.10;76.50;;;;;;5075042;28;19924;-78
2022/10/22 10:59:25;;;;;;;;;;;22.20;76.40;;;;;;5073581;28;19924;-79
2022/10/22 11:01:57;;;;;;;;;;;22.30;76.30;;;;;;5072439;28;19920;-79
2022/10/22 11:04:28;;;;;;;;;;;22.40;76.30;;;;;;5074636;28;20383;-78
2022/10/22 11:06:54;;;;;;;;;;;22.50;76.20;;;;;;5072236;28;20435;-77
2022/10/22 11:09:22;;;;;;;;;;;22.60;76.10;;;;;;5060316;28;19924;-78
2022/10/22 11:11:49;;;;;;;;;;;22.80;75.90;;;;;;5070596;28;19916;-77
2022/10/22 11:14:21;;;;;;;;;;;22.90;75.70;;;;;;5081225;28;19916;-78
2022/10/22 11:16:48;;;;;;;;;;;23.00;75.50;;;;;;5061182;28;19924;-78
2022/10/22 11:19:19;;;;;;;;;;;23.20;75.40;;;;;;5055377;28;20518;-79
2022/10/22 11:21:55;;;;;;;;;;;23.30;75.20;;;;;;5063636;28;19965;-77
2022/10/22 11:24:28;;;;;;;;;;;23.40;75.00;;;;;;5079545;28;19934;-77
2022/10/22 11:27:13;;;;;;;;;;;23.50;74.80;;;;;;5075784;28;20012;-76
2022/10/22 11:29:40;;;;;;;;;;;23.60;74.70;;;;;;5049557;28;19924;-77
2022/10/22 11:32:05;;;;;;;;;;;23.70;74.50;;;;;;5074765;28;19923;-77
2022/10/22 11:34:35;;;;;;;;;;;23.80;74.50;;;;;;5076191;28;19920;-77
2022/10/22 11:37:01;;;;;;;;;;;23.80;74.40;;;;;;5071161;28;19939;-78
2022/10/22 11:39:45;;;;;;;;;;;23.90;74.30;;;;;;5077151;28;20316;-77
2022/10/22 11:42:15;;;;;;;;;;;23.90;74.20;;;;;;5077138;28;19916;-77
2022/10/22 11:44:59;;;;;;;;;;;24.00;74.10;;;;;;5063557;28;19916;-78
2022/10/22 11:47:25;;;;;;;;;;;24.00;74.00;;;;;;5076357;28;19916;-79
2022/10/22 11:49:58;;;;;;;;;;;24.10;74.00;;;;;;5059825;28;19924;-79
2022/10/22 11:52:36;;;;;;;;;;;24.00;74.00;;;;;;5078619;28;19959;-78
2022/10/22 11:55:02;;;;;;;;;;;24.00;74.10;;;;;;5079228;28;19931;-78
2022/10/22 11:57:37;;;;;;;;;;;24.00;74.00;;;;;;5081962;28;19932;-77
2022/10/22 12:00:10;;;;;;;;;;;24.00;74.10;;;;;;5078844;28;19925;-77
2022/10/22 12:02:39;;;;;;;;;;;24.00;74.00;;;;;;5081848;28;19981;-78
2022/10/22 12:05:23;;;;;;;;;;;24.10;74.00;;;;;;5078385;28;20319;-79
2022/10/22 12:07:53;;;;;;;;;;;24.20;74.00;;;;;;5073848;28;20001;-78
2022/10/22 12:10:19;;;;;;;;;;;24.30;73.90;;;;;;5061039;28;19927;-78
2022/10/22 12:12:51;;;;;;;;;;;24.40;73.70;;;;;;5061990;28;19938;-78
2022/10/22 12:15:20;;;;;;;;;;;24.50;73.50;;;;;;5080314;28;20384;-78
2022/10/22 12:17:45;;;;;;;;;;;24.60;73.40;;;;;;5076615;28;19921;-76
2022/10/22 12:20:11;;;;;;;;;;;24.60;73.30;;;;;;5077027;28;19926;-79
2022/10/22 12:22:37;;;;;;;;;;;24.70;73.10;;;;;;5077708;28;20019;-77
2022/10/22 12:25:08;;;;;;;;;;;24.80;73.00;;;;;;5077339;28;19947;-79
2022/10/22 12:27:34;;;;;;;;;;;24.80;72.90;;;;;;5048282;28;19973;-78
2022/10/22 12:30:00;;;;;;;;;;;24.90;72.80;;;;;;5081372;28;19920;-78
2022/10/22 12:32:32;;;;;;;;;;;24.90;72.70;;;;;;5076778;28;19968;-78
2022/10/22 12:34:57;;;;;;;;;;;24.80;72.80;;;;;;5078224;28;19912;-77
2022/10/22 12:37:23;;;;;;;;;;;24.80;72.80;;;;;;5078163;28;20380;-78
2022/10/22 12:39:48;;;;;;;;;;;24.80;72.80;;;;;;5075849;28;19920;-77
2022/10/22 12:42:15;;;;;;;;;;;24.80;72.90;;;;;;5060905;28;19912;-78
2022/10/22 12:44:41;;;;;;;;;;;24.80;72.80;;;;;;5060337;28;19920;-78
2022/10/22 12:47:07;;;;;;;;;;;24.70;72.80;;;;;;5079045;28;19924;-78
2022/10/22 12:49:37;;;;;;;;;;;24.80;72.80;;;;;;5058633;28;19916;-77
2022/10/22 12:52:03;;;;;;;;;;;24.70;72.80;;;;;;5058255;28;19942;-78
2022/10/22 12:54:29;;;;;;;;;;;24.60;72.80;;;;;;5076409;28;20300;-78
2022/10/22 12:56:55;;;;;;;;;;;24.60;72.80;;;;;;5061237;28;19920;-79
2022/10/22 12:59:24;;;;;;;;;;;24.60;72.80;;;;;;5052449;28;19912;-78
2022/10/22 13:01:49;;;;;;;;;;;24.50;72.80;;;;;;5056005;28;19997;-77
2022/10/22 13:04:15;;;;;;;;;;;24.50;72.90;;;;;;5055267;28;20380;-77
2022/10/22 13:06:44;;;;;;;;;;;24.50;73.00;;;;;;5074775;28;20420;-78
2022/10/22 13:09:19;;;;;;;;;;;24.60;73.00;;;;;;5074141;28;20006;-78
2022/10/22 13:11:48;;;;;;;;;;;24.70;73.00;;;;;;5074194;28;19948;-77
2022/10/22 13:14:32;;;;;;;;;;;24.70;72.80;;;;;;5077271;28;19999;-79
2022/10/22 13:17:01;;;;;;;;;;;24.80;72.80;;;;;;5076202;28;19920;-78
2022/10/22 13:19:46;;;;;;;;;;;24.90;72.70;;;;;;5077808;28;23749;-78
2022/10/22 13:22:24;;;;;;;;;;;24.90;72.60;;;;;;5062280;28;19931;-78
2022/10/22 13:24:50;;;;;;;;;;;25.00;72.50;;;;;;5056421;28;19968;-78
2022/10/22 13:27:15;;;;;;;;;;;24.90;72.30;;;;;;5079209;28;20054;-79
2022/10/22 13:29:41;;;;;;;;;;;24.90;72.20;;;;;;5058064;28;20627;-79
2022/10/22 13:32:16;;;;;;;;;;;24.90;72.10;;;;;;5076166;28;19947;-79
2022/10/22 13:34:42;;;;;;;;;;;24.80;72.10;;;;;;5056387;28;19927;-78
2022/10/22 13:37:08;;;;;;;;;;;24.70;72.10;;;;;;5071674;28;19928;-78
2022/10/22 13:39:34;;;;;;;;;;;24.60;72.20;;;;;;5074623;28;20516;-78
2022/10/22 13:41:59;;;;;;;;;;;24.60;72.40;;;;;;5079368;28;19916;-77
2022/10/22 13:44:25;;;;;;;;;;;24.50;72.50;;;;;;5077181;28;20313;-78
2022/10/22 13:46:50;;;;;;;;;;;24.60;72.50;;;;;;5081985;28;19960;-78
2022/10/22 13:49:16;;;;;;;;;;;24.50;72.50;;;;;;5074076;28;19920;-76
2022/10/22 13:51:42;;;;;;;;;;;24.50;72.40;;;;;;5077724;28;20602;-77
2022/10/22 13:54:15;;;;;;;;;;;24.40;72.20;;;;;;5075566;28;20101;-80
2022/10/22 13:56:40;;;;;;;;;;;24.30;72.30;;;;;;5075648;28;20312;-77
2022/10/22 13:59:06;;;;;;;;;;;24.30;72.40;;;;;;5077883;28;21148;-78
2022/10/22 14:01:32;;;;;;;;;;;24.20;72.50;;;;;;5076744;28;19920;-78
2022/10/22 14:03:58;;;;;;;;;;;24.10;72.50;;;;;;5074587;28;19930;-77
2022/10/22 14:06:23;;;;;;;;;;;24.10;72.50;;;;;;5078609;28;19973;-78
2022/10/22 14:08:53;;;;;;;;;;;24.10;72.60;;;;;;5073008;28;19924;-77
2022/10/22 14:11:18;;;;;;;;;;;24.10;72.70;;;;;;5059947;28;19924;-78
2022/10/22 14:13:44;;;;;;;;;;;24.10;72.60;;;;;;5060064;28;19969;-78
2022/10/22 14:16:17;;;;;;;;;;;24.10;72.60;;;;;;5081678;28;20388;-78
2022/10/22 14:18:42;;;;;;;;;;;24.10;72.60;;;;;;5077887;28;19923;-77